Time;durP1;ratioP1;P1;durP2;ratioP2;P2;SDS_P1;SDS_P2;PMS_P1;PMS_P2;Temp;Humidity;BMP_temperature;BMP_pressure;BME280_temperature;BME280_humidity;BME280_pressure;Samples;Min_cycle;Max_cycle;Signal;HPM_P1;HPM_P2
2023/07/31 00:00:25;;;;;;;19.10;8.85;;;17.70;80.90;;;;;;4964702;28;20050;-75
2023/07/31 00:02:52;;;;;;;28.13;8.43;;;17.80;80.80;;;;;;4966935;28;20035;-76
2023/07/31 00:05:18;;;;;;;22.25;8.23;;;17.80;80.90;;;;;;4971403;28;20471;-75
2023/07/31 00:07:43;;;;;;;18.92;8.68;;;17.70;81.10;;;;;;4970668;28;20517;-76
2023/07/31 00:10:10;;;;;;;23.30;9.02;;;17.70;81.10;;;;;;4970046;28;20727;-75
2023/07/31 00:12:35;;;;;;;19.83;8.18;;;17.80;80.90;;;;;;4963619;28;20027;-75
2023/07/31 00:15:02;;;;;;;19.55;8.10;;;17.80;80.90;;;;;;4964927;28;20032;-76
2023/07/31 00:17:28;;;;;;;22.35;8.77;;;17.80;80.50;;;;;;4965469;28;20035;-76
2023/07/31 00:19:53;;;;;;;16.73;7.28;;;17.80;80.50;;;;;;4964579;28;20035;-79
2023/07/31 00:22:19;;;;;;;18.70;7.93;;;17.80;80.70;;;;;;4960915;28;20435;-77
2023/07/31 00:24:45;;;;;;;23.58;8.23;;;17.80;80.70;;;;;;4967542;28;20030;-75
2023/07/31 00:27:10;;;;;;;18.90;7.18;;;17.80;80.70;;;;;;4963552;28;20661;-75
2023/07/31 00:29:36;;;;;;;17.85;7.50;;;17.80;80.90;;;;;;4968050;28;20053;-77
2023/07/31 00:32:02;;;;;;;19.95;7.78;;;17.80;80.90;;;;;;4960831;28;20059;-75
2023/07/31 00:34:27;;;;;;;19.98;7.68;;;17.80;81.10;;;;;;4966617;28;20039;-75
2023/07/31 00:36:53;;;;;;;17.65;7.47;;;17.80;81.10;;;;;;4962406;28;20031;-74
2023/07/31 00:39:19;;;;;;;19.58;7.40;;;17.70;81.10;;;;;;4967238;28;20023;-77
2023/07/31 00:41:44;;;;;;;17.35;7.30;;;17.70;81.30;;;;;;4966121;28;20532;-75
2023/07/31 00:44:10;;;;;;;22.02;7.47;;;17.70;81.40;;;;;;4963595;28;20026;-76
2023/07/31 00:46:36;;;;;;;19.13;7.47;;;17.70;81.30;;;;;;4964292;28;20058;-76
2023/07/31 00:49:03;;;;;;;24.00;7.55;;;17.80;81.20;;;;;;4966150;28;20460;-75
2023/07/31 00:51:29;;;;;;;19.55;7.43;;;17.80;81.10;;;;;;4966840;28;20066;-76
2023/07/31 00:53:55;;;;;;;18.60;7.40;;;17.80;80.80;;;;;;4960383;28;20471;-76
2023/07/31 00:56:22;;;;;;;17.95;7.05;;;17.80;81.00;;;;;;4963597;28;20125;-76
2023/07/31 00:58:47;;;;;;;18.50;7.65;;;17.80;81.00;;;;;;4964701;28;20028;-76
2023/07/31 01:01:13;;;;;;;18.05;8.07;;;17.80;81.00;;;;;;4966877;28;20271;-75
2023/07/31 01:03:39;;;;;;;19.52;7.18;;;17.80;81.10;;;;;;4964474;28;20038;-76
2023/07/31 01:06:21;;;;;;;18.95;8.23;;;17.80;81.30;;;;;;4964825;28;20395;-76
2023/07/31 01:09:11;;;;;;;18.52;7.90;;;17.80;80.90;;;;;;4964067;28;20031;-77
2023/07/31 01:11:45;;;;;;;19.52;6.85;;;17.90;80.90;;;;;;4962461;28;20042;-75
2023/07/31 01:14:10;;;;;;;16.38;6.82;;;17.90;80.90;;;;;;4965456;28;20070;-76
2023/07/31 01:16:36;;;;;;;16.35;7.22;;;17.90;81.00;;;;;;4965488;28;20043;-79
2023/07/31 01:19:02;;;;;;;18.50;6.78;;;17.90;81.00;;;;;;4963845;28;20058;-76
2023/07/31 01:21:53;;;;;;;19.45;7.07;;;17.80;81.00;;;;;;4961014;28;20055;-75
2023/07/31 01:24:55;;;;;;;22.40;6.72;;;17.90;81.00;;;;;;4966679;28;20031;-76
2023/07/31 01:27:35;;;;;;;20.92;6.72;;;17.90;81.10;;;;;;4967986;28;20034;-74
2023/07/31 01:30:14;;;;;;;19.52;7.55;;;17.80;81.30;;;;;;4967113;28;20027;-75
2023/07/31 01:32:42;;;;;;;16.90;6.30;;;17.90;81.30;;;;;;4961461;28;20058;-75
2023/07/31 01:35:08;;;;;;;19.27;6.22;;;17.90;81.40;;;;;;4970621;28;20035;-75
2023/07/31 01:37:34;;;;;;;16.80;6.22;;;17.90;81.40;;;;;;4965659;28;20166;-75
2023/07/31 01:40:00;;;;;;;20.25;6.97;;;17.90;81.50;;;;;;4959578;28;20050;-75
2023/07/31 01:42:25;;;;;;;16.70;6.28;;;17.90;81.60;;;;;;4964994;28;20258;-75
2023/07/31 01:44:51;;;;;;;17.80;6.57;;;17.90;81.40;;;;;;4970667;28;20364;-75
2023/07/31 01:47:17;;;;;;;20.13;6.65;;;18.00;81.40;;;;;;4971511;28;20073;-77
2023/07/31 01:49:42;;;;;;;22.75;7.40;;;18.00;81.50;;;;;;4966562;28;20038;-75
2023/07/31 01:52:08;;;;;;;12.50;5.90;;;18.00;81.60;;;;;;4961887;28;20089;-75
2023/07/31 01:54:34;;;;;;;18.52;7.47;;;18.00;81.70;;;;;;4963723;28;20667;-74
2023/07/31 01:56:59;;;;;;;13.02;6.05;;;18.00;81.80;;;;;;4961691;28;20035;-74
2023/07/31 01:59:25;;;;;;;14.85;6.13;;;18.00;81.70;;;;;;4966146;28;20030;-75
2023/07/31 02:01:51;;;;;;;16.48;6.38;;;18.00;81.80;;;;;;4961265;28;20057;-75
2023/07/31 02:04:16;;;;;;;16.63;6.13;;;17.90;81.90;;;;;;4981260;28;20038;-75
2023/07/31 02:06:43;;;;;;;18.17;6.72;;;17.90;82.00;;;;;;4967848;28;20096;-77
2023/07/31 02:09:09;;;;;;;17.48;6.68;;;17.90;82.20;;;;;;4968598;28;20035;-77
2023/07/31 02:11:35;;;;;;;15.98;6.15;;;17.90;82.50;;;;;;4965222;28;20089;-74
2023/07/31 02:14:00;;;;;;;16.80;6.43;;;17.90;82.60;;;;;;4963310;28;20035;-76
2023/07/31 02:16:26;;;;;;;20.98;6.82;;;17.90;82.70;;;;;;4966527;28;20042;-74
2023/07/31 02:18:52;;;;;;;15.85;6.38;;;17.90;82.80;;;;;;4960356;28;20023;-75
2023/07/31 02:21:26;;;;;;;20.95;6.50;;;18.00;83.00;;;;;;4960102;28;20089;-75
2023/07/31 02:23:52;;;;;;;19.48;7.00;;;18.00;83.10;;;;;;4964979;28;20034;-75
2023/07/31 02:26:18;;;;;;;18.02;6.20;;;18.00;83.20;;;;;;4964724;28;21314;-74
2023/07/31 02:28:43;;;;;;;17.42;6.45;;;18.00;83.50;;;;;;4962940;28;20520;-75
2023/07/31 02:31:09;;;;;;;20.75;6.80;;;18.00;83.70;;;;;;4961221;28;20050;-74
2023/07/31 02:33:35;;;;;;;16.30;6.80;;;18.00;84.00;;;;;;4964982;28;20039;-76
2023/07/31 02:36:00;;;;;;;18.63;7.18;;;18.00;84.50;;;;;;4960604;28;20050;-75
2023/07/31 02:38:26;;;;;;;23.50;6.82;;;18.10;85.00;;;;;;4964105;28;20628;-76
2023/07/31 02:40:52;;;;;;;18.75;6.57;;;18.00;85.60;;;;;;4967336;28;20059;-75
2023/07/31 02:43:17;;;;;;;18.55;7.05;;;18.00;85.70;;;;;;4968024;28;20049;-77
2023/07/31 02:45:43;;;;;;;15.63;6.85;;;17.90;86.10;;;;;;4965769;28;20034;-73
2023/07/31 02:48:09;;;;;;;14.35;6.75;;;17.90;86.30;;;;;;4965979;28;20529;-76
2023/07/31 02:50:35;;;;;;;16.80;6.93;;;17.90;86.40;;;;;;4963370;28;20035;-73
2023/07/31 02:53:00;;;;;;;14.45;6.65;;;17.80;86.60;;;;;;4965089;28;20098;-75
2023/07/31 02:55:26;;;;;;;17.77;7.20;;;17.90;86.70;;;;;;4967876;28;20093;-77
2023/07/31 02:57:52;;;;;;;19.48;7.43;;;17.80;86.80;;;;;;4972335;28;20031;-76
2023/07/31 03:00:18;;;;;;;17.30;6.80;;;17.80;87.00;;;;;;4967839;28;20027;-76
2023/07/31 03:02:44;;;;;;;18.02;7.07;;;17.80;87.20;;;;;;4972911;28;20131;-77
2023/07/31 03:05:09;;;;;;;19.20;7.13;;;17.80;87.30;;;;;;4970085;28;20212;-77
2023/07/31 03:07:35;;;;;;;17.85;7.45;;;17.80;87.40;;;;;;4966246;28;20114;-76
2023/07/31 03:10:01;;;;;;;18.35;7.20;;;17.80;87.70;;;;;;4968391;28;20070;-76
2023/07/31 03:12:27;;;;;;;14.38;7.05;;;17.80;87.90;;;;;;4965546;28;20047;-76
2023/07/31 03:14:53;;;;;;;16.45;7.57;;;17.80;88.20;;;;;;4968052;28;20534;-76
2023/07/31 03:17:18;;;;;;;18.05;8.40;;;17.70;88.50;;;;;;4967780;28;20574;-76
2023/07/31 03:19:44;;;;;;;18.90;8.18;;;17.70;88.80;;;;;;4965954;28;20492;-77
2023/07/31 03:22:10;;;;;;;18.33;8.23;;;17.60;88.90;;;;;;4949777;28;20530;-76
2023/07/31 03:24:35;;;;;;;18.20;8.35;;;17.60;89.10;;;;;;4946060;28;20038;-75
2023/07/31 03:27:01;;;;;;;18.73;8.73;;;17.60;89.40;;;;;;4963959;28;20047;-76
2023/07/31 03:29:27;;;;;;;19.75;8.48;;;17.60;89.60;;;;;;4964839;28;20058;-75
2023/07/31 03:31:52;;;;;;;21.40;7.93;;;17.60;89.80;;;;;;4962984;28;20034;-76
2023/07/31 03:34:18;;;;;;;18.48;8.38;;;17.50;89.80;;;;;;4968105;28;20593;-77
2023/07/31 03:36:44;;;;;;;22.90;8.50;;;17.50;89.90;;;;;;4967730;28;20045;-78
2023/07/31 03:39:10;;;;;;;16.92;7.97;;;17.50;90.00;;;;;;4969124;28;20031;-77
2023/07/31 03:41:35;;;;;;;21.50;8.55;;;17.50;90.00;;;;;;4970242;28;20062;-77
2023/07/31 03:44:01;;;;;;;18.25;8.20;;;17.50;90.10;;;;;;4970104;28;21180;-77
2023/07/31 03:46:27;;;;;;;18.48;8.57;;;17.50;90.20;;;;;;4969482;28;20074;-76
2023/07/31 03:48:52;;;;;;;16.90;7.80;;;17.40;90.30;;;;;;4972379;28;20030;-76
2023/07/31 03:51:18;;;;;;;20.70;8.45;;;17.40;90.40;;;;;;4968622;28;20220;-75
2023/07/31 03:53:44;;;;;;;18.77;8.63;;;17.40;90.50;;;;;;4967465;28;20484;-75
2023/07/31 03:56:10;;;;;;;16.13;8.18;;;17.40;90.50;;;;;;4971093;28;20058;-75
2023/07/31 03:58:36;;;;;;;17.92;7.72;;;17.40;90.50;;;;;;4967843;28;20511;-74
2023/07/31 04:01:03;;;;;;;19.50;8.40;;;17.40;90.50;;;;;;4964314;28;20122;-75
2023/07/31 04:03:29;;;;;;;17.95;7.82;;;17.40;90.50;;;;;;4984608;28;20030;-76
2023/07/31 04:05:58;;;;;;;17.20;7.22;;;17.40;90.50;;;;;;4963473;28;20582;-76
2023/07/31 04:08:24;;;;;;;14.88;7.03;;;17.40;90.50;;;;;;4972163;28;20031;-75
2023/07/31 04:10:50;;;;;;;14.02;6.60;;;17.40;90.50;;;;;;4964014;28;20086;-75
2023/07/31 04:13:16;;;;;;;16.27;7.30;;;17.40;90.50;;;;;;4948288;28;20038;-76
2023/07/31 04:15:42;;;;;;;12.75;6.90;;;17.40;90.30;;;;;;4954501;28;20032;-75
2023/07/31 04:18:07;;;;;;;15.73;6.90;;;17.40;90.10;;;;;;4965073;28;20023;-77
2023/07/31 04:20:33;;;;;;;16.15;7.45;;;17.40;90.10;;;;;;4968689;28;20058;-76
2023/07/31 04:22:59;;;;;;;13.35;5.85;;;17.40;90.20;;;;;;4947825;28;20110;-76
2023/07/31 04:25:25;;;;;;;13.50;6.30;;;17.40;90.10;;;;;;4955446;28;20030;-77
2023/07/31 04:27:51;;;;;;;14.88;6.90;;;17.30;90.20;;;;;;4968081;28;20026;-78
2023/07/31 04:30:16;;;;;;;12.70;6.30;;;17.40;90.10;;;;;;4967252;28;20476;-76
2023/07/31 04:32:42;;;;;;;12.65;6.13;;;17.40;90.10;;;;;;4961915;28;20027;-76
2023/07/31 04:35:08;;;;;;;14.13;6.35;;;17.40;90.30;;;;;;4965643;28;20482;-75
2023/07/31 04:37:33;;;;;;;13.15;6.82;;;17.30;90.40;;;;;;4964565;28;20035;-77
2023/07/31 04:39:59;;;;;;;12.07;6.50;;;17.30;90.30;;;;;;4960514;28;20031;-76
2023/07/31 04:42:25;;;;;;;15.18;6.90;;;17.40;90.40;;;;;;4946956;28;20496;-74
2023/07/31 04:44:52;;;;;;;12.43;7.00;;;17.40;90.40;;;;;;4944460;29;20090;-75
2023/07/31 04:47:18;;;;;;;15.27;6.88;;;17.40;90.60;;;;;;4940107;28;20748;-75
2023/07/31 04:49:44;;;;;;;13.65;6.78;;;17.40;90.60;;;;;;4946231;28;20031;-75
2023/07/31 04:52:09;;;;;;;13.07;7.18;;;17.40;90.70;;;;;;4941902;28;20642;-75
2023/07/31 04:54:35;;;;;;;14.70;6.72;;;17.40;90.80;;;;;;4943313;29;20035;-76
2023/07/31 04:57:01;;;;;;;11.43;6.57;;;17.40;90.70;;;;;;4944686;28;20037;-75
2023/07/31 04:59:26;;;;;;;13.13;7.43;;;17.40;90.80;;;;;;4948712;28;20035;-76
2023/07/31 05:01:52;;;;;;;12.07;7.22;;;17.40;90.80;;;;;;4944578;28;20066;-75
2023/07/31 05:04:18;;;;;;;13.55;6.95;;;17.40;90.60;;;;;;4938079;29;20055;-76
2023/07/31 05:06:43;;;;;;;12.27;6.88;;;17.40;90.60;;;;;;4945715;28;20134;-75
2023/07/31 05:09:10;;;;;;;12.55;6.50;;;17.50;90.50;;;;;;4943707;28;20053;-75
2023/07/31 05:11:36;;;;;;;15.52;6.93;;;17.50;90.30;;;;;;4945097;28;20039;-76
2023/07/31 05:14:01;;;;;;;15.63;7.32;;;17.50;90.30;;;;;;4938953;29;20037;-75
2023/07/31 05:16:27;;;;;;;13.23;6.80;;;17.40;90.10;;;;;;4940586;28;20059;-75
2023/07/31 05:18:52;;;;;;;14.32;6.50;;;17.50;90.20;;;;;;4940071;28;20103;-76
2023/07/31 05:21:18;;;;;;;11.88;6.13;;;17.50;90.00;;;;;;4943342;28;20067;-75
2023/07/31 05:23:44;;;;;;;13.02;6.65;;;17.50;89.90;;;;;;4946143;29;20023;-75
2023/07/31 05:26:09;;;;;;;17.45;6.88;;;17.50;89.80;;;;;;4945292;28;20110;-76
2023/07/31 05:28:36;;;;;;;15.48;6.90;;;17.50;89.70;;;;;;4945073;29;20027;-75
2023/07/31 05:31:03;;;;;;;13.05;6.70;;;17.60;89.60;;;;;;4938964;28;20031;-75
2023/07/31 05:33:29;;;;;;;13.77;6.93;;;17.60;89.40;;;;;;4934671;28;20547;-76
2023/07/31 05:35:54;;;;;;;13.90;6.70;;;17.60;89.10;;;;;;4944108;28;20054;-76
2023/07/31 05:38:21;;;;;;;12.32;6.32;;;17.60;88.90;;;;;;4975768;28;20023;-75
2023/07/31 05:40:47;;;;;;;12.30;6.32;;;17.60;88.90;;;;;;4936780;28;20052;-75
2023/07/31 05:43:13;;;;;;;13.98;6.50;;;17.60;88.80;;;;;;4944885;28;20027;-75
2023/07/31 05:45:40;;;;;;;13.88;6.20;;;17.60;88.80;;;;;;4945469;28;20066;-76
2023/07/31 05:48:05;;;;;;;15.50;5.78;;;17.60;88.70;;;;;;4946795;29;20155;-75
2023/07/31 05:50:31;;;;;;;14.60;5.97;;;17.60;88.30;;;;;;4945442;28;20687;-75
2023/07/31 05:52:57;;;;;;;14.05;6.78;;;17.70;88.10;;;;;;4940456;28;20027;-77
2023/07/31 05:55:26;;;;;;;12.90;5.72;;;17.70;87.80;;;;;;4940765;28;20046;-76
2023/07/31 05:57:52;;;;;;;14.32;5.60;;;17.80;87.50;;;;;;4950713;28;20424;-77
2023/07/31 06:00:18;;;;;;;13.82;5.80;;;17.70;87.30;;;;;;4943716;28;21124;-79
2023/07/31 06:02:44;;;;;;;12.98;6.10;;;17.80;86.70;;;;;;4945905;28;20064;-77
2023/07/31 06:05:10;;;;;;;13.80;5.75;;;17.80;86.70;;;;;;4946605;28;20035;-77
2023/07/31 06:07:35;;;;;;;12.23;5.07;;;17.90;86.40;;;;;;4970182;28;20022;-76
2023/07/31 06:10:04;;;;;;;14.07;5.68;;;18.00;86.00;;;;;;4965241;28;20452;-76
2023/07/31 06:12:31;;;;;;;11.68;5.47;;;18.00;85.80;;;;;;4956700;28;20031;-76
2023/07/31 06:14:57;;;;;;;12.55;5.68;;;18.10;85.70;;;;;;4964467;28;20031;-75
2023/07/31 06:17:24;;;;;;;13.70;5.47;;;18.10;85.40;;;;;;4958113;28;20031;-75
2023/07/31 06:19:51;;;;;;;13.88;5.63;;;18.20;85.30;;;;;;4961573;28;20069;-75
2023/07/31 06:22:16;;;;;;;11.95;5.57;;;18.10;85.40;;;;;;4962375;28;20633;-76
2023/07/31 06:24:42;;;;;;;12.35;5.93;;;18.20;85.30;;;;;;4961233;28;20065;-75
2023/07/31 06:27:08;;;;;;;10.70;5.32;;;18.30;85.20;;;;;;4960554;28;20130;-78
2023/07/31 06:29:35;;;;;;;11.82;5.95;;;18.30;84.60;;;;;;4961203;28;20035;-74
2023/07/31 06:32:01;;;;;;;16.52;5.63;;;18.30;84.70;;;;;;4962403;28;20042;-77
2023/07/31 06:34:26;;;;;;;12.25;5.40;;;18.30;84.60;;;;;;4963732;28;20034;-75
2023/07/31 06:36:52;;;;;;;11.43;5.28;;;18.30;84.40;;;;;;4964018;28;20333;-76
2023/07/31 06:39:18;;;;;;;14.45;5.75;;;18.40;84.40;;;;;;4963938;28;20014;-76
2023/07/31 06:41:44;;;;;;;15.90;5.28;;;18.30;84.60;;;;;;4959275;28;20051;-76
2023/07/31 06:44:10;;;;;;;15.32;6.13;;;18.30;84.50;;;;;;4959265;28;20034;-76
2023/07/31 06:46:36;;;;;;;11.73;5.35;;;18.30;84.30;;;;;;4957744;28;20031;-76
2023/07/31 06:49:02;;;;;;;12.05;5.43;;;18.40;84.50;;;;;;4960063;28;20039;-78
2023/07/31 06:51:28;;;;;;;13.18;5.22;;;18.40;84.30;;;;;;4948770;28;20035;-77
2023/07/31 06:53:53;;;;;;;11.90;5.18;;;18.40;84.10;;;;;;4940295;28;20073;-76
2023/07/31 06:56:21;;;;;;;11.40;5.30;;;18.50;83.80;;;;;;4939483;28;20043;-77
2023/07/31 06:58:46;;;;;;;10.77;4.35;;;18.50;83.60;;;;;;4939311;28;20039;-77
2023/07/31 07:01:12;;;;;;;10.05;4.97;;;18.50;83.10;;;;;;4953672;28;20459;-76
2023/07/31 07:03:38;;;;;;;11.70;5.90;;;18.60;83.00;;;;;;4959486;28;20482;-74
2023/07/31 07:06:03;;;;;;;8.63;4.85;;;18.60;82.90;;;;;;4960789;28;20760;-74
2023/07/31 07:08:29;;;;;;;13.30;5.22;;;18.70;82.70;;;;;;4957949;28;20113;-77
2023/07/31 07:10:55;;;;;;;11.15;4.35;;;18.80;82.10;;;;;;4957909;28;20135;-75
2023/07/31 07:13:21;;;;;;;11.52;5.10;;;18.80;82.20;;;;;;4941460;28;20321;-74
2023/07/31 07:15:50;;;;;;;9.35;4.13;;;19.00;81.80;;;;;;4957216;28;20123;-76
2023/07/31 07:18:16;;;;;;;11.57;4.68;;;19.10;81.10;;;;;;4964532;28;20094;-76
2023/07/31 07:20:52;;;;;;;8.32;4.22;;;19.10;81.00;;;;;;4976082;28;20039;-76
2023/07/31 07:23:18;;;;;;;8.40;3.80;;;19.10;80.80;;;;;;4958714;28;20027;-78
2023/07/31 07:25:46;;;;;;;11.05;4.82;;;19.00;81.50;;;;;;4960662;28;20047;-76
2023/07/31 07:28:14;;;;;;;11.27;4.45;;;19.00;82.00;;;;;;4959640;28;20029;-79
2023/07/31 07:30:40;;;;;;;7.00;3.83;;;18.90;82.40;;;;;;4955923;28;20285;-79
2023/07/31 07:33:06;;;;;;;8.18;4.18;;;18.80;82.10;;;;;;4940072;28;20031;-76
2023/07/31 07:35:35;;;;;;;8.40;3.63;;;18.80;81.90;;;;;;4941026;28;20047;-75
2023/07/31 07:38:02;;;;;;;10.27;4.40;;;18.80;82.00;;;;;;4939792;28;20036;-75
2023/07/31 07:40:28;;;;;;;9.15;3.95;;;18.90;82.10;;;;;;4941208;28;20047;-77
2023/07/31 07:42:55;;;;;;;10.10;3.72;;;19.10;81.90;;;;;;4943601;28;20051;-77
2023/07/31 07:45:20;;;;;;;7.88;4.22;;;19.10;81.70;;;;;;4941454;28;20093;-75
2023/07/31 07:47:46;;;;;;;9.93;3.33;;;19.10;81.50;;;;;;4942459;28;20029;-75
2023/07/31 07:50:12;;;;;;;7.88;3.45;;;19.10;81.30;;;;;;4943168;28;20362;-76
2023/07/31 07:52:38;;;;;;;9.05;3.75;;;19.30;81.30;;;;;;4943264;28;20739;-75
2023/07/31 07:55:04;;;;;;;7.57;3.85;;;19.30;81.20;;;;;;4946045;28;20045;-76
2023/07/31 07:57:30;;;;;;;8.55;4.43;;;19.40;81.30;;;;;;4966586;28;20026;-76
2023/07/31 07:59:55;;;;;;;8.18;3.50;;;19.60;81.20;;;;;;4966743;28;20376;-78
2023/07/31 08:02:22;;;;;;;6.38;3.38;;;19.60;80.50;;;;;;4966315;28;20031;-75
2023/07/31 08:04:48;;;;;;;6.03;3.35;;;19.70;79.90;;;;;;4965636;28;20027;-77
2023/07/31 08:07:14;;;;;;;6.07;2.95;;;19.70;80.00;;;;;;4966385;28;20113;-77
2023/07/31 08:09:41;;;;;;;8.27;3.28;;;19.60;80.00;;;;;;4965302;28;20107;-76
2023/07/31 08:12:07;;;;;;;7.97;3.75;;;19.50;80.30;;;;;;4963280;28;20054;-78
2023/07/31 08:14:33;;;;;;;6.20;3.40;;;19.60;80.70;;;;;;4964756;28;20527;-77
2023/07/31 08:16:59;;;;;;;6.75;3.03;;;19.60;80.50;;;;;;4963248;28;20039;-77
2023/07/31 08:19:24;;;;;;;8.68;4.05;;;19.60;80.70;;;;;;4961898;28;20464;-75
2023/07/31 08:21:50;;;;;;;6.70;3.40;;;19.50;80.60;;;;;;4961057;28;20454;-77
2023/07/31 08:24:16;;;;;;;7.53;3.47;;;19.60;80.80;;;;;;4965366;28;20153;-77
2023/07/31 08:26:42;;;;;;;7.80;3.70;;;19.60;80.60;;;;;;4956576;28;20035;-77
2023/07/31 08:29:07;;;;;;;6.82;3.50;;;19.70;80.20;;;;;;4962709;28;20487;-75
2023/07/31 08:31:33;;;;;;;8.07;3.97;;;19.70;80.80;;;;;;4965002;28;20043;-76
2023/07/31 08:33:59;;;;;;;8.43;4.00;;;19.70;81.00;;;;;;4965437;28;20065;-78
2023/07/31 08:36:25;;;;;;;7.47;3.67;;;20.00;80.50;;;;;;4966369;28;20117;-77
2023/07/31 08:38:51;;;;;;;10.07;3.90;;;20.10;79.80;;;;;;4960530;28;20114;-78
2023/07/31 08:41:17;;;;;;;10.48;3.65;;;20.20;79.60;;;;;;4965142;28;20492;-75
2023/07/31 08:43:45;;;;;;;7.53;3.78;;;20.30;79.00;;;;;;4965224;28;20058;-74
2023/07/31 08:46:11;;;;;;;9.68;4.57;;;20.40;78.90;;;;;;4959952;28;20065;-78
2023/07/31 08:48:38;;;;;;;7.85;4.20;;;20.40;79.40;;;;;;4965009;28;20438;-80
2023/07/31 08:51:04;;;;;;;10.63;4.32;;;20.40;79.40;;;;;;4961941;28;20043;-80
2023/07/31 08:53:30;;;;;;;8.82;4.00;;;20.50;79.40;;;;;;4966548;28;20037;-78
2023/07/31 08:55:58;;;;;;;9.85;4.85;;;20.50;79.10;;;;;;4965686;28;20030;-77
2023/07/31 08:58:25;;;;;;;9.20;4.50;;;20.50;79.80;;;;;;4964185;28;20034;-78
2023/07/31 09:00:52;;;;;;;9.80;4.57;;;20.30;80.30;;;;;;4962825;28;20050;-78
2023/07/31 09:03:18;;;;;;;11.02;4.95;;;20.30;81.10;;;;;;4960151;28;20101;-79
2023/07/31 09:05:46;;;;;;;7.88;4.88;;;20.30;80.80;;;;;;4962986;28;20030;-78
2023/07/31 09:08:13;;;;;;;8.23;4.70;;;20.30;81.00;;;;;;4960639;28;20026;-77
2023/07/31 09:10:46;;;;;;;9.82;4.78;;;20.50;80.90;;;;;;4960171;28;20126;-79
2023/07/31 09:13:15;;;;;;;10.45;5.25;;;20.40;80.60;;;;;;4944865;28;20040;-79
2023/07/31 09:15:45;;;;;;;9.50;5.18;;;20.30;80.40;;;;;;4955414;28;20031;-78
2023/07/31 09:18:11;;;;;;;8.68;5.43;;;20.30;80.40;;;;;;4965023;28;20023;-77
2023/07/31 09:20:39;;;;;;;10.27;5.38;;;20.30;80.50;;;;;;4966195;28;20102;-77
2023/07/31 09:23:14;;;;;;;12.13;5.47;;;20.40;80.40;;;;;;4965451;28;20605;-79
2023/07/31 09:25:40;;;;;;;;;;;20.30;80.60;;;;;;4963623;28;20382;-76
2023/07/31 09:28:07;;;;;;;10.15;5.25;;;20.30;80.30;;;;;;4963830;28;19914;-78
2023/07/31 09:30:49;;;;;;;12.07;5.85;;;20.30;80.50;;;;;;4962858;28;20045;-77
2023/07/31 09:33:15;;;;;;;8.40;5.30;;;20.30;80.70;;;;;;4959843;28;20026;-77
2023/07/31 09:35:41;;;;;;;10.85;5.70;;;20.20;81.00;;;;;;4960130;28;20039;-76
2023/07/31 09:38:08;;;;;;;13.38;6.28;;;20.30;81.10;;;;;;4964567;28;20454;-77
2023/07/31 09:40:36;;;;;;;12.10;5.32;;;20.50;80.60;;;;;;4958967;28;20126;-77
2023/07/31 09:43:17;;;;;;;9.68;5.07;;;20.60;80.10;;;;;;4943729;28;20489;-75
2023/07/31 09:45:43;;;;;;;9.68;5.07;;;20.70;79.50;;;;;;4944530;28;20064;-79
2023/07/31 09:48:17;;;;;;;11.48;5.60;;;20.80;79.60;;;;;;4945602;28;20039;-78
2023/07/31 09:50:48;;;;;;;10.38;5.13;;;21.10;79.10;;;;;;4943761;28;20202;-77
2023/07/31 09:53:15;;;;;;;8.90;4.90;;;21.10;78.70;;;;;;4943670;28;20472;-78
2023/07/31 09:55:42;;;;;;;9.23;5.05;;;21.10;78.00;;;;;;4941968;28;20075;-77
2023/07/31 09:58:12;;;;;;;8.98;4.70;;;21.10;78.50;;;;;;4945953;28;20035;-77
2023/07/31 10:00:39;;;;;;;11.05;5.32;;;21.00;78.60;;;;;;4943050;28;20121;-80
2023/07/31 10:03:07;;;;;;;9.25;4.63;;;20.90;78.90;;;;;;4946738;28;20485;-79
2023/07/31 10:05:42;;;;;;;10.45;4.63;;;20.90;79.10;;;;;;4943276;28;20094;-80
2023/07/31 10:08:10;;;;;;;9.32;5.60;;;20.80;79.40;;;;;;4945122;28;20023;-78
2023/07/31 10:10:37;;;;;;;9.75;5.00;;;20.70;79.40;;;;;;4939581;28;20031;-80
2023/07/31 10:13:04;;;;;;;10.10;5.43;;;20.70;79.80;;;;;;4943556;28;20038;-80
2023/07/31 10:15:31;;;;;;;10.30;5.60;;;20.70;79.80;;;;;;4943276;28;20046;-79
2023/07/31 10:17:58;;;;;;;9.80;5.43;;;20.80;80.00;;;;;;4946215;28;20035;-77
2023/07/31 10:20:24;;;;;;;10.60;5.72;;;20.90;80.80;;;;;;4944938;28;20039;-76
2023/07/31 10:22:51;;;;;;;9.68;5.28;;;20.90;80.70;;;;;;4944208;29;20023;-78
2023/07/31 10:25:19;;;;;;;9.25;5.43;;;21.00;79.80;;;;;;4942467;28;20085;-79
2023/07/31 10:27:47;;;;;;;10.73;5.72;;;21.00;79.00;;;;;;4943608;28;20104;-78
2023/07/31 10:30:16;;;;;;;11.10;5.78;;;21.00;78.80;;;;;;4942278;28;20030;-78
2023/07/31 10:32:43;;;;;;;12.77;5.30;;;21.10;78.40;;;;;;4944262;28;20050;-80
2023/07/31 10:35:09;;;;;;;10.88;5.88;;;21.20;78.20;;;;;;4944293;28;20046;-80
2023/07/31 10:37:40;;;;;;;11.15;5.90;;;21.20;77.90;;;;;;4944479;28;20042;-81
2023/07/31 10:40:10;;;;;;;10.45;4.90;;;21.20;78.50;;;;;;4937989;28;20101;-80
2023/07/31 10:43:10;;;;;;;11.85;5.00;;;21.10;78.40;;;;;;4941955;28;20134;-80
2023/07/31 10:45:39;;;;;;;9.88;4.72;;;21.00;78.40;;;;;;4948882;28;20057;-81
2023/07/31 10:48:13;;;;;;;10.93;5.13;;;21.00;78.70;;;;;;4944645;28;20039;-80
2023/07/31 10:50:51;;;;;;;9.93;5.43;;;21.10;78.30;;;;;;4940153;28;20035;-78
2023/07/31 10:53:30;;;;;;;12.18;4.97;;;21.20;78.00;;;;;;4941225;28;20030;-78
2023/07/31 10:56:01;;;;;;;9.65;4.32;;;21.40;77.90;;;;;;4940246;28;20034;-77
2023/07/31 10:58:27;;;;;;;8.55;4.72;;;21.50;77.20;;;;;;4942096;28;20034;-76
2023/07/31 11:01:02;;;;;;;8.90;4.43;;;21.60;77.00;;;;;;4938529;28;20047;-79
2023/07/31 11:03:48;;;;;;;9.70;4.63;;;21.70;76.30;;;;;;4942691;29;20074;-78
2023/07/31 11:06:16;;;;;;;9.40;4.57;;;21.70;76.50;;;;;;4941091;28;20054;-79
2023/07/31 11:08:47;;;;;;;8.55;4.45;;;21.90;75.80;;;;;;4937635;28;20477;-80
2023/07/31 11:11:18;;;;;;;9.00;4.75;;;22.00;75.80;;;;;;4949565;28;20030;-78
2023/07/31 11:13:53;;;;;;;10.65;5.22;;;21.90;75.80;;;;;;4961815;28;20102;-79
2023/07/31 11:16:21;;;;;;;10.45;4.72;;;21.80;76.10;;;;;;4964776;28;20667;-78
2023/07/31 11:18:48;;;;;;;9.82;4.47;;;21.80;76.00;;;;;;4963535;28;20113;-79
2023/07/31 11:21:19;;;;;;;8.98;5.25;;;21.90;75.70;;;;;;4964286;28;20668;-79
2023/07/31 11:23:53;;;;;;;8.23;4.82;;;21.90;75.80;;;;;;4968620;28;20038;-78
2023/07/31 11:26:20;;;;;;;10.65;4.63;;;21.80;76.00;;;;;;4966615;28;20134;-79
2023/07/31 11:28:49;;;;;;;8.60;5.47;;;21.80;76.10;;;;;;4970592;28;20030;-79
2023/07/31 11:31:15;;;;;;;10.73;5.13;;;21.90;75.90;;;;;;4967124;28;20156;-79
2023/07/31 11:33:41;;;;;;;9.90;5.05;;;22.00;75.20;;;;;;4970906;28;20034;-77
2023/07/31 11:36:17;;;;;;;13.63;5.05;;;22.10;75.00;;;;;;4960996;28;20043;-78
2023/07/31 11:38:43;;;;;;;9.63;4.95;;;22.10;75.10;;;;;;4948355;28;20040;-77
2023/07/31 11:41:09;;;;;;;10.75;5.35;;;22.00;75.10;;;;;;4950278;28;20043;-77
2023/07/31 11:43:36;;;;;;;8.40;5.00;;;22.00;75.60;;;;;;4946806;28;20118;-77
2023/07/31 11:46:02;;;;;;;10.25;5.72;;;21.90;75.60;;;;;;4949735;28;20042;-80
2023/07/31 11:48:34;;;;;;;10.25;5.50;;;21.90;75.50;;;;;;4950484;28;20027;-79
2023/07/31 11:51:05;;;;;;;10.75;5.53;;;21.80;75.40;;;;;;4950888;28;20506;-79
2023/07/31 11:53:40;;;;;;;11.55;6.00;;;21.70;75.60;;;;;;4944529;28;20086;-78
2023/07/31 11:56:08;;;;;;;11.05;5.72;;;21.70;75.80;;;;;;4947430;28;20043;-79
2023/07/31 11:58:35;;;;;;;12.43;5.60;;;21.60;75.90;;;;;;4945903;28;20074;-78
2023/07/31 12:01:02;;;;;;;11.77;5.65;;;21.50;76.20;;;;;;4947730;28;20051;-79
2023/07/31 12:03:28;;;;;;;13.70;6.15;;;21.50;76.30;;;;;;4949095;28;20031;-79
2023/07/31 12:05:54;;;;;;;12.50;6.03;;;21.40;77.20;;;;;;4953121;28;20117;-79
2023/07/31 12:08:24;;;;;;;12.40;6.40;;;21.40;78.70;;;;;;4964657;28;20106;-79
2023/07/31 12:10:51;;;;;;;10.35;5.65;;;21.30;79.50;;;;;;4959395;28;20489;-80
2023/07/31 12:13:24;;;;;;;12.30;6.60;;;21.10;81.40;;;;;;4945283;28;20078;-78
2023/07/31 12:15:55;;;;;;;11.45;6.47;;;21.10;82.40;;;;;;4949731;28;20043;-77
2023/07/31 12:18:20;;;;;;;11.05;6.40;;;21.10;82.30;;;;;;4962181;28;20027;-76
2023/07/31 12:20:48;;;;;;;12.50;6.40;;;20.90;83.20;;;;;;4965628;28;20043;-76
2023/07/31 12:23:15;;;;;;;11.90;6.60;;;20.70;83.70;;;;;;4968253;28;20322;-79
2023/07/31 12:25:41;;;;;;;11.15;7.47;;;20.50;84.50;;;;;;4966245;28;20041;-76
2023/07/31 12:28:11;;;;;;;12.48;7.95;;;20.40;85.60;;;;;;4963684;28;20075;-77
2023/07/31 12:30:38;;;;;;;10.68;6.78;;;20.20;86.50;;;;;;4961415;28;20066;-76
2023/07/31 12:33:15;;;;;;;12.57;6.50;;;20.10;87.00;;;;;;4948386;28;20094;-77
2023/07/31 12:35:47;;;;;;;12.32;6.90;;;20.00;87.50;;;;;;4962597;28;20114;-78
2023/07/31 12:38:13;;;;;;;11.13;6.20;;;19.90;87.90;;;;;;4963964;28;20030;-77
2023/07/31 12:40:40;;;;;;;9.55;5.45;;;19.70;88.20;;;;;;4964557;28;20163;-78